Time;durP1;ratioP1;P1;durP2;ratioP2;P2;SDS_P1;SDS_P2;PMS_P1;PMS_P2;Temp;Humidity;BMP_temperature;BMP_pressure;BME280_temperature;BME280_humidity;BME280_pressure;Samples;Min_cycle;Max_cycle;Signal;HPM_P1;HPM_P2
2021/03/12 00:00:47;;;;;;;24.97;17.33;;;1.10;99.90;0.10;95997.00;;;;5087762;28;20469;-69
2021/03/12 00:03:38;;;;;;;26.13;17.10;;;1.10;99.90;0.10;95986.00;;;;5092719;28;20425;-69
2021/03/12 00:06:26;;;;;;;23.10;14.83;;;1.20;99.90;0.20;95993.00;;;;5103180;28;20463;-69
2021/03/12 00:09:15;;;;;;;24.47;16.00;;;1.20;99.90;0.30;95990.00;;;;5085325;28;20449;-69
2021/03/12 00:12:03;;;;;;;24.63;14.93;;;1.30;99.90;0.30;95999.00;;;;5087618;28;20429;-69
2021/03/12 00:14:51;;;;;;;24.40;16.13;;;1.40;99.90;0.30;96020.00;;;;5086648;28;20433;-69
2021/03/12 00:17:39;;;;;;;23.20;16.77;;;1.40;99.90;0.40;96033.00;;;;5085762;28;20469;-69
2021/03/12 00:20:33;;;;;;;21.17;14.60;;;1.50;99.90;0.40;96040.00;;;;5088107;28;21237;-70
2021/03/12 00:23:21;;;;;;;28.07;16.87;;;1.50;99.90;0.40;96049.00;;;;5096302;28;20433;-70
2021/03/12 00:26:09;;;;;;;21.13;15.03;;;1.50;99.90;0.50;96046.00;;;;5089073;27;20433;-69
2021/03/12 00:28:57;;;;;;;22.83;16.13;;;1.60;99.90;0.60;96039.00;;;;5105460;28;20424;-69
2021/03/12 00:31:45;;;;;;;22.30;14.27;;;1.60;99.90;0.60;96029.00;;;;5106460;28;20421;-70
2021/03/12 00:34:33;;;;;;;18.03;13.70;;;1.70;99.90;0.70;96040.00;;;;5084664;28;20429;-69
2021/03/12 00:37:22;;;;;;;21.53;13.53;;;1.70;99.90;0.80;96036.00;;;;5086478;28;20464;-70
2021/03/12 00:40:15;;;;;;;22.67;15.43;;;1.80;99.90;0.80;96024.00;;;;5086920;28;20457;-69
2021/03/12 00:43:03;;;;;;;21.97;15.50;;;1.80;99.90;0.70;96020.00;;;;5086820;28;20441;-69
2021/03/12 00:45:54;;;;;;;22.57;14.87;;;1.90;99.90;0.80;96032.00;;;;5087959;28;20471;-69
2021/03/12 00:48:42;;;;;;;21.87;14.17;;;1.90;99.90;0.90;96005.00;;;;5089789;28;20429;-69
2021/03/12 00:51:30;;;;;;;15.50;13.17;;;1.90;99.90;1.00;96008.00;;;;5086996;28;20421;-69
2021/03/12 00:54:18;;;;;;;19.23;14.23;;;2.00;99.90;1.00;96008.00;;;;5075660;28;20437;-69
2021/03/12 00:57:07;;;;;;;24.23;15.67;;;2.00;99.90;1.10;96002.00;;;;5065090;28;20469;-69
2021/03/12 00:59:54;;;;;;;19.97;14.13;;;2.10;99.90;1.10;96015.00;;;;5064812;28;20478;-69
2021/03/12 01:02:42;;;;;;;19.80;14.73;;;2.20;99.90;0.90;96022.00;;;;5066169;28;20802;-70
2021/03/12 01:05:31;;;;;;;23.07;15.60;;;2.10;99.90;0.90;96026.00;;;;5068650;28;20621;-68
2021/03/12 01:08:19;;;;;;;19.70;12.97;;;2.10;99.90;1.00;96023.00;;;;5065922;28;20962;-68
2021/03/12 01:11:07;;;;;;;22.17;15.43;;;2.10;99.90;1.10;96014.00;;;;5066205;28;20423;-70
2021/03/12 01:13:55;;;;;;;19.90;12.97;;;2.10;99.90;1.10;95997.00;;;;5066139;28;20799;-70
2021/03/12 01:16:43;;;;;;;22.27;13.73;;;2.20;99.90;1.10;95981.00;;;;5064921;28;20847;-70
2021/03/12 01:19:33;;;;;;;21.93;14.77;;;2.20;99.90;1.20;95985.00;;;;5065556;28;20473;-69
2021/03/12 01:22:21;;;;;;;22.00;14.97;;;2.30;99.90;1.20;95988.00;;;;5065692;28;20475;-69
2021/03/12 01:25:12;;;;;;;27.03;14.67;;;2.30;99.90;0.90;95996.00;;;;5073016;28;20450;-70
2021/03/12 01:28:01;;;;;;;19.67;13.63;;;2.20;99.90;1.00;96006.00;;;;5067077;28;20450;-69
2021/03/12 01:30:50;;;;;;;25.60;15.17;;;2.20;99.90;1.20;96008.00;;;;5069483;28;20443;-69
2021/03/12 01:33:38;;;;;;;19.70;13.57;;;2.30;99.90;1.30;96020.00;;;;5066697;28;20427;-69
2021/03/12 01:36:26;;;;;;;22.30;15.23;;;2.30;99.90;1.40;96040.00;;;;5065386;28;20455;-69
2021/03/12 01:39:14;;;;;;;23.83;13.63;;;2.40;99.90;1.30;96055.00;;;;5065784;28;20426;-69
2021/03/12 01:42:04;;;;;;;20.90;14.33;;;2.40;99.90;1.30;96041.00;;;;5066767;28;20438;-68
2021/03/12 01:44:53;;;;;;;22.93;14.83;;;2.40;99.90;1.40;96042.00;;;;5079591;28;20418;-69
2021/03/12 01:47:42;;;;;;;22.40;15.77;;;2.50;99.90;1.20;96027.00;;;;5065113;28;20443;-69
2021/03/12 01:50:30;;;;;;;22.03;15.80;;;2.50;99.90;1.20;96043.00;;;;5066338;28;20441;-69
2021/03/12 01:53:21;;;;;;;21.97;14.83;;;2.40;99.90;1.30;96053.00;;;;5065917;28;20439;-69
2021/03/12 01:56:09;;;;;;;20.70;14.93;;;2.40;99.90;1.30;96053.00;;;;5067660;28;20442;-69
2021/03/12 01:58:57;;;;;;;24.97;15.23;;;2.40;99.90;1.40;96029.00;;;;5089482;28;20424;-70
2021/03/12 02:01:46;;;;;;;21.87;14.30;;;2.50;99.90;1.50;96039.00;;;;5075288;28;20426;-70
2021/03/12 02:04:34;;;;;;;22.93;14.67;;;2.50;99.90;1.50;96022.00;;;;5064997;28;20462;-69
2021/03/12 02:07:21;;;;;;;22.97;14.53;;;2.50;99.90;1.50;96028.00;;;;5064772;28;21179;-69
2021/03/12 02:10:14;;;;;;;21.83;13.93;;;2.60;99.90;1.50;96017.00;;;;5065931;28;20438;-70
2021/03/12 02:13:10;;;;;;;21.53;14.73;;;2.60;99.90;1.50;96034.00;;;;5064970;28;20426;-69
2021/03/12 02:16:07;;;;;;;14.60;12.60;;;2.60;99.90;1.60;96032.00;;;;5065526;28;20881;-69
2021/03/12 02:19:09;;;;;;;20.60;13.20;;;2.60;99.90;1.70;96020.00;;;;5064056;28;21039;-69
2021/03/12 02:22:00;;;;;;;23.67;14.83;;;2.70;99.90;1.60;96029.00;;;;5065336;28;20434;-69
2021/03/12 02:24:54;;;;;;;21.30;14.27;;;2.70;99.90;1.50;96014.00;;;;5074949;28;20422;-69
2021/03/12 02:27:44;;;;;;;19.53;14.30;;;2.70;99.90;1.50;96016.00;;;;5064124;28;20565;-69
2021/03/12 02:30:32;;;;;;;20.27;13.97;;;2.70;99.90;1.50;96023.00;;;;5071461;28;20426;-69
2021/03/12 02:33:22;;;;;;;21.97;14.27;;;2.70;99.90;1.40;96020.00;;;;5066782;28;21929;-69
2021/03/12 02:36:10;;;;;;;18.10;13.63;;;2.60;99.90;1.50;96008.00;;;;5068386;28;20461;-68
2021/03/12 02:38:59;;;;;;;20.53;14.57;;;2.60;99.90;1.60;96008.00;;;;5068195;28;20822;-69
2021/03/12 02:41:49;;;;;;;20.07;12.90;;;2.60;99.90;1.60;95995.00;;;;5067543;28;20488;-69
2021/03/12 02:44:38;;;;;;;20.23;13.33;;;2.70;99.90;1.60;96013.00;;;;5069500;28;20430;-69
2021/03/12 02:47:30;;;;;;;15.27;12.20;;;2.70;99.90;1.60;96011.00;;;;5068187;28;20454;-69
2021/03/12 02:50:18;;;;;;;21.27;14.70;;;2.70;99.90;1.60;96018.00;;;;5079708;28;20452;-69
2021/03/12 02:53:06;;;;;;;21.03;15.00;;;2.70;99.90;1.50;96010.00;;;;5083610;28;21239;-69
2021/03/12 02:55:55;;;;;;;23.10;13.77;;;2.70;99.90;1.50;96010.00;;;;5068568;28;20449;-69
2021/03/12 02:58:46;;;;;;;23.63;15.23;;;2.70;99.90;1.60;96011.00;;;;5079268;28;20444;-69
2021/03/12 03:01:35;;;;;;;22.90;13.67;;;2.70;99.90;1.60;96019.00;;;;5080266;28;20469;-69
2021/03/12 03:04:24;;;;;;;18.23;13.40;;;2.70;99.90;1.60;96034.00;;;;5067678;28;20979;-69
2021/03/12 03:07:14;;;;;;;19.83;13.33;;;2.70;99.90;1.50;96026.00;;;;5068086;28;20837;-69
2021/03/12 03:10:07;;;;;;;19.73;12.90;;;2.80;99.90;1.50;96038.00;;;;5066000;28;20433;-69
2021/03/12 03:12:55;;;;;;;16.50;12.00;;;2.70;99.90;1.40;96026.00;;;;5068415;28;20430;-69
2021/03/12 03:15:44;;;;;;;21.23;13.33;;;2.70;99.90;1.40;96042.00;;;;5068489;28;20816;-69
2021/03/12 03:18:35;;;;;;;15.93;11.60;;;2.60;99.90;1.40;96041.00;;;;5068157;28;20444;-69
2021/03/12 03:21:23;;;;;;;19.50;11.73;;;2.60;99.90;1.30;96038.00;;;;5066407;28;20470;-68
2021/03/12 03:24:12;;;;;;;18.13;13.13;;;2.60;99.90;1.30;96033.00;;;;5073160;28;20433;-68
2021/03/12 03:26:59;;;;;;;22.07;12.93;;;2.50;99.90;1.30;96033.00;;;;5070077;28;20969;-68
2021/03/12 03:29:47;;;;;;;18.60;11.40;;;2.50;99.90;1.20;96030.00;;;;5074179;28;20436;-69
2021/03/12 03:32:36;;;;;;;14.57;10.30;;;2.50;99.90;1.20;96034.00;;;;5067755;28;20438;-68
2021/03/12 03:35:24;;;;;;;18.53;13.23;;;2.40;99.90;1.10;96053.00;;;;5087870;28;20434;-69
2021/03/12 03:38:12;;;;;;;20.77;14.20;;;2.40;99.90;1.10;96063.00;;;;5087069;28;20457;-68
2021/03/12 03:41:04;;;;;;;20.90;13.33;;;2.30;99.90;1.00;96067.00;;;;5086708;28;20485;-70
2021/03/12 03:43:54;;;;;;;18.53;12.27;;;2.30;99.90;1.00;96071.00;;;;5088498;28;20429;-69
2021/03/12 03:46:46;;;;;;;21.00;14.50;;;2.30;99.90;1.00;96078.00;;;;5067389;28;20866;-68
2021/03/12 03:49:36;;;;;;;24.47;13.80;;;2.20;99.90;1.10;96075.00;;;;5070821;28;20433;-69
2021/03/12 03:52:26;;;;;;;18.23;12.57;;;2.20;99.90;1.10;96077.00;;;;5067257;28;20433;-69
2021/03/12 03:55:15;;;;;;;19.30;12.63;;;2.20;99.90;1.00;96078.00;;;;5068262;28;20449;-70
2021/03/12 03:58:04;;;;;;;18.13;12.03;;;2.20;99.90;1.00;96095.00;;;;5073859;28;20455;-69
2021/03/12 04:00:52;;;;;;;21.53;12.63;;;2.20;99.90;1.00;96078.00;;;;5074788;28;20466;-69
2021/03/12 04:03:42;;;;;;;18.07;13.70;;;2.20;99.90;1.00;96077.00;;;;5067561;28;20446;-69
2021/03/12 04:06:31;;;;;;;16.70;12.43;;;2.20;99.90;0.90;96078.00;;;;5067751;28;20459;-69
2021/03/12 04:09:20;;;;;;;19.63;13.27;;;3.00;99.90;0.80;96080.00;;;;5067942;28;20439;-69
2021/03/12 04:12:10;;;;;;;15.33;11.57;;;2.10;99.90;0.70;96089.00;;;;5065555;28;20820;-69
2021/03/12 04:15:03;;;;;;;18.43;13.00;;;2.00;99.90;0.70;96090.00;;;;5067340;28;21040;-69
2021/03/12 04:17:51;;;;;;;18.57;12.77;;;2.00;99.90;0.70;96089.00;;;;5067932;28;20985;-69
2021/03/12 04:20:39;;;;;;;21.93;12.20;;;1.90;99.90;0.60;96098.00;;;;5067141;28;20474;-69
2021/03/12 04:23:27;;;;;;;18.20;13.60;;;1.90;99.90;0.40;96105.00;;;;5065719;28;20973;-69
2021/03/12 04:26:16;;;;;;;17.17;12.33;;;1.80;99.90;0.40;96110.00;;;;5068319;28;20445;-69
2021/03/12 04:29:05;;;;;;;22.90;12.43;;;1.70;99.90;0.40;96122.00;;;;5071587;28;20806;-69
2021/03/12 04:31:53;;;;;;;20.47;13.30;;;1.70;99.90;0.30;96115.00;;;;5072845;28;20811;-69
2021/03/12 04:34:41;;;;;;;19.17;13.30;;;1.60;99.90;0.40;96124.00;;;;5066881;28;20524;-69
2021/03/12 04:37:29;;;;;;;20.20;12.50;;;1.60;99.90;0.40;96126.00;;;;5067114;28;20460;-70
2021/03/12 04:40:18;;;;;;;19.97;13.00;;;1.60;99.90;0.50;96136.00;;;;5066220;28;20466;-70
2021/03/12 04:43:08;;;;;;;19.57;12.43;;;1.60;99.90;0.30;96114.00;;;;5067376;28;20439;-69
2021/03/12 04:46:00;;;;;;;17.23;11.50;;;1.60;99.90;0.10;96121.00;;;;5067256;28;20430;-69
2021/03/12 04:48:49;;;;;;;19.13;12.70;;;1.60;99.90;0.10;96126.00;;;;5065836;28;20431;-69
2021/03/12 04:51:37;;;;;;;21.07;12.93;;;1.50;99.90;0.00;96119.00;;;;5066213;28;20422;-70
2021/03/12 04:54:28;;;;;;;19.33;13.27;;;1.40;99.90;0.00;96112.00;;;;5066204;28;20453;-69
2021/03/12 04:57:16;;;;;;;17.67;12.40;;;1.30;99.90;0.00;96138.00;;;;5081014;28;20450;-70
2021/03/12 05:00:09;;;;;;;19.57;13.30;;;1.30;99.90;-0.10;96135.00;;;;5073733;28;20426;-69
2021/03/12 05:02:57;;;;;;;14.87;10.20;;;1.20;99.90;-0.20;96130.00;;;;5066668;28;20431;-70
2021/03/12 05:05:46;;;;;;;16.33;12.00;;;1.20;99.90;-0.30;96137.00;;;;5066402;28;20472;-69
2021/03/12 05:08:36;;;;;;;18.83;11.40;;;1.10;99.90;-0.20;96137.00;;;;5067001;28;20959;-70
2021/03/12 05:11:24;;;;;;;19.20;13.00;;;1.10;99.90;-0.20;96140.00;;;;5065952;28;20434;-69
2021/03/12 05:14:14;;;;;;;19.80;12.13;;;1.10;99.90;-0.30;96156.00;;;;5067216;28;20533;-70
2021/03/12 05:17:02;;;;;;;21.93;10.50;;;1.10;99.90;-0.30;96152.00;;;;5066016;28;20469;-69
2021/03/12 05:19:51;;;;;;;17.00;10.30;;;1.00;99.90;-0.40;96176.00;;;;5065821;28;20569;-69
2021/03/12 05:22:38;;;;;;;15.83;12.23;;;1.00;99.90;0.00;96186.00;;;;5065479;28;20446;-69
2021/03/12 05:25:26;;;;;;;19.13;12.60;;;1.00;99.90;0.00;96186.00;;;;5065793;28;20438;-69
2021/03/12 05:28:14;;;;;;;22.30;12.77;;;1.10;99.90;-0.10;96185.00;;;;5067228;28;20919;-69
2021/03/12 05:31:02;;;;;;;17.03;10.63;;;1.10;99.90;-0.30;96185.00;;;;5078826;28;20425;-69
2021/03/12 05:33:53;;;;;;;16.03;11.37;;;1.10;99.90;-0.50;96188.00;;;;5080670;28;20473;-69
2021/03/12 05:36:41;;;;;;;15.77;11.70;;;1.00;99.90;-0.40;96185.00;;;;5078229;28;20449;-69
2021/03/12 05:39:29;;;;;;;17.67;11.80;;;0.90;99.90;-0.50;96172.00;;;;5078150;28;20440;-69
2021/03/12 05:42:17;;;;;;;17.47;10.23;;;0.90;99.90;-0.40;96178.00;;;;5065004;28;20813;-69
2021/03/12 05:45:07;;;;;;;15.40;10.77;;;0.90;99.90;-0.40;96208.00;;;;5076136;28;20443;-69
2021/03/12 05:47:56;;;;;;;17.53;11.00;;;0.90;99.90;-0.50;96211.00;;;;5071790;28;20797;-69
2021/03/12 05:50:45;;;;;;;21.10;11.70;;;0.90;99.90;-0.30;96213.00;;;;5064653;28;20446;-69
2021/03/12 05:53:33;;;;;;;17.13;10.63;;;0.90;99.90;-0.10;96220.00;;;;5093651;28;20873;-69
2021/03/12 05:56:21;;;;;;;19.00;10.33;;;1.00;99.90;-0.30;96219.00;;;;5104984;28;20518;-69
2021/03/12 05:59:09;;;;;;;17.17;10.90;;;1.00;99.90;-0.50;96251.00;;;;5103943;28;20647;-69
2021/03/12 06:01:58;;;;;;;14.57;10.07;;;1.00;99.90;-0.50;96235.00;;;;5101223;28;20465;-68
2021/03/12 06:04:46;;;;;;;15.73;10.03;;;0.90;99.90;-0.50;96236.00;;;;5097296;28;20463;-68
2021/03/12 06:07:35;;;;;;;13.47;10.13;;;0.90;99.90;-0.20;96219.00;;;;5099061;28;20453;-68
2021/03/12 06:10:23;;;;;;;19.90;10.70;;;0.90;99.90;-0.10;96216.00;;;;5085710;28;20442;-68
2021/03/12 06:13:11;;;;;;;18.53;11.23;;;1.00;99.90;-0.10;96217.00;;;;5099454;28;20433;-68
2021/03/12 06:15:59;;;;;;;16.43;10.87;;;1.10;99.90;-0.10;96219.00;;;;5087306;28;20437;-70
2021/03/12 06:19:12;;;;;;;16.97;10.53;;;1.10;99.90;0.20;96222.00;;;;5084094;28;20464;-68
2021/03/12 06:22:08;;;;;;;13.57;9.97;;;1.20;99.90;0.40;96247.00;;;;5093952;28;20515;-69
2021/03/12 06:25:12;;;;;;;16.03;10.97;;;1.40;99.90;0.50;96247.00;;;;5107675;28;20435;-68
2021/03/12 06:28:17;;;;;;;12.93;8.77;;;1.50;99.90;0.00;96232.00;;;;5084306;28;20479;-68
2021/03/12 06:31:26;;;;;;;13.80;10.07;;;1.40;99.90;0.10;96238.00;;;;5100669;28;20439;-68
2021/03/12 06:34:14;;;;;;;12.40;9.93;;;1.40;99.90;0.20;96247.00;;;;5098434;28;20470;-69
2021/03/12 06:37:24;;;;;;;14.20;9.23;;;1.40;99.90;0.50;96247.00;;;;5076742;28;20454;-69
2021/03/12 06:40:25;;;;;;;15.87;9.80;;;1.50;99.90;0.70;96249.00;;;;5076373;28;20461;-69
2021/03/12 06:43:15;;;;;;;17.00;11.03;;;1.60;99.90;0.90;96259.00;;;;5065075;28;20449;-70
2021/03/12 06:46:03;;;;;;;16.83;11.00;;;1.80;99.90;1.10;96256.00;;;;5064600;28;20430;-69
2021/03/12 06:49:01;;;;;;;13.13;10.13;;;1.90;99.90;1.30;96254.00;;;;5064699;28;20446;-69
2021/03/12 06:51:58;;;;;;;17.33;9.37;;;2.10;99.90;1.50;96259.00;;;;5077983;28;20437;-69
2021/03/12 06:54:53;;;;;;;15.63;10.33;;;2.30;99.90;1.70;96265.00;;;;5063971;28;20450;-68
2021/03/12 06:57:42;;;;;;;12.30;9.97;;;2.50;99.90;1.60;96275.00;;;;5091919;28;20483;-69
2021/03/12 07:00:32;;;;;;;15.07;10.73;;;2.60;99.90;1.70;96281.00;;;;5098481;28;20461;-68
2021/03/12 07:03:27;;;;;;;20.70;11.57;;;2.70;99.90;2.20;96285.00;;;;5093170;28;20951;-68
2021/03/12 07:06:16;;;;;;;15.40;11.63;;;2.90;99.90;2.50;96282.00;;;;5091228;28;20465;-68
2021/03/12 07:09:07;;;;;;;12.83;9.83;;;3.10;99.90;2.70;96279.00;;;;5084666;28;21011;-69
2021/03/12 07:11:57;;;;;;;12.70;9.43;;;3.30;99.90;2.90;96285.00;;;;5085908;28;20484;-69
2021/03/12 07:14:47;;;;;;;13.50;9.60;;;3.50;99.90;2.80;96282.00;;;;5091742;28;20498;-70
2021/03/12 07:17:35;;;;;;;14.47;10.47;;;3.70;99.90;2.80;96282.00;;;;5101222;28;20458;-68
2021/03/12 07:20:24;;;;;;;14.90;10.23;;;3.80;99.90;3.10;96290.00;;;;5079856;28;20423;-68
2021/03/12 07:23:12;;;;;;;13.07;9.60;;;3.90;99.90;3.00;96295.00;;;;5082086;28;20459;-68
2021/03/12 07:26:00;;;;;;;10.63;9.27;;;4.00;99.90;3.00;96295.00;;;;5082363;28;20856;-68
2021/03/12 07:28:53;;;;;;;12.57;8.90;;;4.00;99.90;3.10;96294.00;;;;5081658;28;20483;-68
2021/03/12 07:31:43;;;;;;;11.13;8.93;;;4.00;99.90;3.40;96310.00;;;;5084803;28;20445;-69
2021/03/12 07:34:34;;;;;;;10.87;8.53;;;4.20;99.90;3.70;96316.00;;;;5086007;28;20430;-70
2021/03/12 07:37:24;;;;;;;10.97;8.67;;;4.30;99.90;4.00;96308.00;;;;5078538;28;20451;-68
2021/03/12 07:40:15;;;;;;;11.90;8.27;;;4.60;99.90;4.60;96320.00;;;;5068888;28;20445;-68
2021/03/12 07:43:06;;;;;;;9.63;6.27;;;4.90;99.90;5.10;96325.00;;;;5086108;28;21133;-68
2021/03/12 07:45:58;;;;;;;8.13;5.67;;;5.20;99.90;5.70;96334.00;;;;5083725;28;20437;-68
2021/03/12 07:48:47;;;;;;;7.17;6.23;;;5.60;99.90;6.10;96344.00;;;;5083074;28;20226;-70
2021/03/12 07:51:46;;;;;;;6.67;4.40;;;6.20;99.90;6.70;96343.00;;;;5084342;28;20596;-70
2021/03/12 07:54:50;;;;;;;5.73;3.73;;;6.60;99.90;7.40;96362.00;;;;5082364;28;20298;-68
2021/03/12 07:57:40;;;;;;;3.53;3.13;;;7.20;99.90;7.70;96367.00;;;;5088040;28;20222;-68
2021/03/12 08:00:28;;;;;;;6.07;4.13;;;7.70;99.90;7.80;96375.00;;;;5078794;28;20614;-69
2021/03/12 08:03:29;;;;;;;8.97;4.33;;;8.00;99.90;7.90;96380.00;;;;5079463;28;20249;-70
2021/03/12 08:06:38;;;;;;;9.70;4.60;;;8.30;99.90;8.20;96371.00;;;;5080118;28;20325;-70
2021/03/12 08:09:35;;;;;;;4.37;3.30;;;8.50;99.90;8.30;96381.00;;;;5083924;28;20206;-69
2021/03/12 08:12:30;;;;;;;4.53;3.50;;;8.70;99.90;8.50;96383.00;;;;5071420;28;20207;-68
2021/03/12 08:15:20;;;;;;;6.27;3.90;;;8.90;99.90;8.70;96385.00;;;;5068654;28;20219;-69
2021/03/12 08:18:26;;;;;;;3.77;3.37;;;9.10;99.90;8.90;96385.00;;;;5082213;28;20232;-68
2021/03/12 08:21:38;;;;;;;4.70;3.03;;;9.30;99.90;8.90;96378.00;;;;5080205;28;20226;-68
2021/03/12 08:24:48;;;;;;;7.73;2.90;;;9.50;99.90;9.30;96393.00;;;;5078851;28;20204;-69
2021/03/12 08:27:42;;;;;;;4.63;2.43;;;9.70;96.90;9.60;96377.00;;;;5093178;28;20226;-69
2021/03/12 08:30:49;;;;;;;3.73;1.73;;;9.90;95.20;9.90;96376.00;;;;5069370;28;20215;-69
2021/03/12 08:33:40;;;;;;;2.13;0.90;;;10.10;87.50;10.20;96382.00;;;;5066080;28;20226;-67
2021/03/12 08:36:31;;;;;;;1.80;0.70;;;10.40;75.40;10.50;96389.00;;;;5076492;28;20219;-68
2021/03/12 08:39:27;;;;;;;3.23;1.50;;;10.70;68.30;10.80;96389.00;;;;5078958;28;20210;-68
2021/03/12 08:42:18;;;;;;;0.60;0.60;;;10.90;70.40;10.80;96376.00;;;;5074452;28;20211;-69
2021/03/12 08:45:08;;;;;;;1.10;0.47;;;11.20;63.80;10.60;96364.00;;;;5066129;28;20204;-69
2021/03/12 08:47:55;;;;;;;1.67;0.67;;;11.30;59.90;10.80;96379.00;;;;5066014;28;20235;-69
2021/03/12 08:50:51;;;;;;;0.30;0.30;;;11.40;59.10;10.70;96378.00;;;;5066539;28;20248;-69
2021/03/12 08:53:41;;;;;;;0.70;0.57;;;11.40;58.40;10.90;96383.00;;;;5067949;28;20214;-69
2021/03/12 08:56:34;;;;;;;3.57;0.77;;;11.40;58.60;10.70;96366.00;;;;5066059;28;20228;-69
2021/03/12 08:59:27;;;;;;;0.97;0.50;;;11.40;58.00;10.90;96389.00;;;;5097876;28;20215;-69
2021/03/12 09:02:24;;;;;;;1.77;0.90;;;11.50;57.10;11.20;96400.00;;;;5095841;28;20222;-68
2021/03/12 09:05:27;;;;;;;0.50;0.50;;;11.70;58.00;10.80;96370.00;;;;5099739;28;20225;-69
2021/03/12 09:08:17;;;;;;;0.70;0.70;;;11.60;56.90;10.90;96390.00;;;;5102211;28;20228;-70
2021/03/12 09:11:07;;;;;;;0.73;0.60;;;11.60;56.10;11.10;96375.00;;;;5082121;28;20201;-69
2021/03/12 09:14:00;;;;;;;0.60;0.50;;;11.70;56.60;11.10;96399.00;;;;5072025;28;20219;-70
2021/03/12 09:16:48;;;;;;;2.90;0.70;;;11.70;55.60;11.40;96378.00;;;;5081619;28;20235;-70
2021/03/12 09:19:36;;;;;;;0.83;0.60;;;11.90;56.20;11.80;96372.00;;;;5082137;28;20215;-70
2021/03/12 09:22:24;;;;;;;0.53;0.50;;;12.10;56.10;11.60;96381.00;;;;5081110;28;20601;-69
2021/03/12 09:25:12;;;;;;;0.80;0.50;;;12.30;55.40;11.70;96370.00;;;;5071494;28;20208;-69
2021/03/12 09:28:08;;;;;;;0.87;0.53;;;12.40;54.70;11.90;96382.00;;;;5071983;28;20219;-68
2021/03/12 09:31:00;;;;;;;0.60;0.60;;;12.50;55.00;12.00;96395.00;;;;5080942;28;20222;-69
2021/03/12 09:33:50;;;;;;;0.80;0.80;;;12.60;54.80;11.70;96387.00;;;;5101994;28;20213;-69
2021/03/12 09:36:41;;;;;;;1.33;0.50;;;12.50;54.20;12.00;96391.00;;;;5102560;28;20256;-69
2021/03/12 09:39:29;;;;;;;1.03;0.60;;;12.50;54.50;12.00;96390.00;;;;5104000;28;20201;-69
2021/03/12 09:42:18;;;;;;;0.77;0.77;;;12.50;55.50;12.10;96364.00;;;;5102318;28;20785;-68
2021/03/12 09:45:07;;;;;;;1.50;0.80;;;12.70;54.10;12.00;96389.00;;;;5101594;28;20682;-68
2021/03/12 09:47:56;;;;;;;0.70;0.70;;;12.70;53.80;12.30;96359.00;;;;5102520;28;20808;-68
2021/03/12 09:50:45;;;;;;;0.50;0.50;;;12.80;54.40;12.40;96384.00;;;;5101878;28;20198;-68
2021/03/12 09:53:33;;;;;;;0.93;0.60;;;12.90;54.40;12.00;96379.00;;;;5103275;28;20216;-68
2021/03/12 09:56:22;;;;;;;0.93;0.60;;;12.90;54.20;11.80;96376.00;;;;5099733;28;20642;-68
2021/03/12 09:59:11;;;;;;;0.40;0.40;;;12.70;53.90;11.90;96373.00;;;;5104842;28;20571;-68
2021/03/12 10:02:03;;;;;;;0.87;0.70;;;12.70;53.90;12.00;96386.00;;;;5101176;28;20210;-68
2021/03/12 10:04:59;;;;;;;3.00;1.47;;;12.70;54.40;12.90;96355.00;;;;5083247;28;20203;-68
2021/03/12 10:08:05;;;;;;;0.40;0.40;;;13.00;54.90;12.60;96374.00;;;;5080957;28;20272;-68
2021/03/12 10:10:56;;;;;;;0.60;0.60;;;13.10;53.60;12.40;96370.00;;;;5068648;28;20232;-69
2021/03/12 10:13:59;;;;;;;2.30;0.50;;;13.20;53.10;12.30;96365.00;;;;5065703;28;20553;-70
2021/03/12 10:17:09;;;;;;;1.17;0.63;;;13.20;52.30;12.60;96379.00;;;;5065677;28;20612;-69
2021/03/12 10:20:02;;;;;;;0.60;0.50;;;13.20;52.10;12.40;96366.00;;;;5064707;28;20208;-69
2021/03/12 10:22:52;;;;;;;0.60;0.60;;;13.20;52.30;12.10;96376.00;;;;5064433;28;20231;-70
2021/03/12 10:25:44;;;;;;;1.67;1.03;;;13.10;51.50;12.30;96365.00;;;;5078406;28;20204;-70
2021/03/12 10:28:33;;;;;;;2.20;0.90;;;13.10;52.20;12.40;96364.00;;;;5064572;28;20675;-70
2021/03/12 10:31:21;;;;;;;2.27;0.70;;;13.10;52.80;12.70;96358.00;;;;5065251;28;20291;-70
2021/03/12 10:34:09;;;;;;;1.33;0.90;;;13.20;53.30;12.70;96360.00;;;;5066485;28;20211;-69
2021/03/12 10:37:13;;;;;;;2.00;1.30;;;13.20;53.10;12.60;96359.00;;;;5065848;28;20593;-70
2021/03/12 10:40:08;;;;;;;4.47;2.40;;;13.30;52.80;12.60;96359.00;;;;5064262;28;20733;-70
2021/03/12 10:42:57;;;;;;;1.10;0.70;;;13.30;53.00;12.70;96355.00;;;;5064421;28;20223;-70
2021/03/12 10:45:48;;;;;;;1.33;1.20;;;13.40;52.70;12.70;96359.00;;;;5096210;28;20587;-70
2021/03/12 10:48:40;;;;;;;1.57;1.47;;;13.50;52.30;12.60;96352.00;;;;5084708;28;20222;-70
2021/03/12 10:51:38;;;;;;;1.53;0.90;;;13.40;51.90;12.50;96368.00;;;;5084624;28;20232;-70
2021/03/12 10:54:30;;;;;;;4.00;1.00;;;13.30;51.90;12.60;96361.00;;;;5085327;28;20235;-70
2021/03/12 10:57:18;;;;;;;0.70;0.67;;;13.30;53.00;12.60;96354.00;;;;5068199;28;20246;-70
2021/03/12 11:00:16;;;;;;;1.40;0.80;;;13.30;52.50;12.60;96360.00;;;;5087474;28;20218;-70
2021/03/12 11:03:04;;;;;;;1.30;0.70;;;13.30;52.40;12.80;96356.00;;;;5088714;28;20252;-70
2021/03/12 11:05:52;;;;;;;1.90;0.70;;;13.30;52.30;13.10;96355.00;;;;5088878;28;20295;-70
2021/03/12 11:08:41;;;;;;;12.30;11.13;;;13.50;52.50;13.00;96350.00;;;;5068408;28;20702;-70
2021/03/12 11:11:30;;;;;;;2.60;2.40;;;13.50;52.60;13.00;96352.00;;;;5100142;27;20203;-70
2021/03/12 11:14:17;;;;;;;4.57;2.97;;;13.60;52.40;12.90;96346.00;;;;5102555;28;20199;-70
2021/03/12 11:17:05;;;;;;;3.23;1.03;;;13.60;52.50;12.90;96343.00;;;;5093956;28;20993;-70
2021/03/12 11:19:53;;;;;;;2.67;1.67;;;13.60;52.10;13.20;96343.00;;;;5088037;28;20277;-70
2021/03/12 11:22:41;;;;;;;0.70;0.70;;;13.60;52.30;12.90;96350.00;;;;5095571;28;20227;-70
2021/03/12 11:25:29;;;;;;;1.53;0.90;;;13.70;51.70;13.00;96341.00;;;;5091032;28;20278;-70
2021/03/12 11:28:18;;;;;;;4.10;0.97;;;13.70;51.20;13.60;96314.00;;;;5088155;28;20219;-69
2021/03/12 11:31:06;;;;;;;2.20;1.30;;;13.90;52.00;13.60;96346.00;;;;5086824;28;20214;-70
2021/03/12 11:33:54;;;;;;;0.70;0.70;;;14.10;51.90;12.90;96338.00;;;;5101395;28;20202;-69
2021/03/12 11:36:42;;;;;;;4.13;0.53;;;14.10;50.50;12.70;96328.00;;;;5101086;28;20219;-69
2021/03/12 11:39:30;;;;;;;0.97;0.70;;;13.80;50.70;12.70;96352.00;;;;5100017;28;20202;-69
2021/03/12 11:42:18;;;;;;;1.33;1.03;;;13.60;51.10;12.50;96331.00;;;;5096009;28;20233;-69
2021/03/12 11:45:10;;;;;;;0.83;0.50;;;13.40;51.40;12.30;96332.00;;;;5106578;28;20206;-69
2021/03/12 11:47:59;;;;;;;1.00;0.80;;;13.30;51.60;12.30;96339.00;;;;5085680;28;20223;-69
2021/03/12 11:50:52;;;;;;;1.10;0.60;;;13.10;52.00;12.10;96338.00;;;;5072001;28;20696;-69
2021/03/12 11:53:40;;;;;;;0.77;0.77;;;13.00;51.50;12.10;96330.00;;;;5074557;28;20222;-69
2021/03/12 11:56:28;;;;;;;0.67;0.40;;;12.90;51.10;12.20;96335.00;;;;5084295;28;20227;-69
2021/03/12 11:59:15;;;;;;;0.57;0.50;;;12.90;51.60;12.20;96325.00;;;;5082565;28;20214;-69
2021/03/12 12:02:04;;;;;;;1.20;0.50;;;12.90;51.70;12.30;96321.00;;;;5076166;28;20232;-70
2021/03/12 12:04:52;;;;;;;0.70;0.67;;;12.90;52.20;12.20;96317.00;;;;5073512;28;20216;-69
2021/03/12 12:07:41;;;;;;;1.10;0.77;;;12.90;52.20;12.20;96308.00;;;;5080838;28;20230;-69
2021/03/12 12:10:32;;;;;;;3.47;0.73;;;12.90;52.50;12.40;96319.00;;;;5074166;28;20196;-69
2021/03/12 12:13:19;;;;;;;1.17;0.87;;;12.90;52.60;12.40;96310.00;;;;5081345;28;20565;-69
2021/03/12 12:16:07;;;;;;;3.50;0.90;;;13.00;52.30;12.50;96313.00;;;;5099428;28;20203;-68
2021/03/12 12:19:01;;;;;;;1.50;1.40;;;13.10;53.20;12.30;96303.00;;;;5067549;28;20200;-70
2021/03/12 12:21:50;;;;;;;2.40;0.70;;;13.10;51.00;12.10;96303.00;;;;5082269;28;20219;-70
2021/03/12 12:24:39;;;;;;;1.60;0.50;;;13.00;51.00;12.30;96292.00;;;;5076171;28;20469;-70
2021/03/12 12:27:26;;;;;;;0.63;0.50;;;13.00;51.80;12.50;96285.00;;;;5083911;28;20211;-70
2021/03/12 12:30:15;;;;;;;2.30;0.70;;;13.00;52.00;12.70;96292.00;;;;5070053;28;20204;-70
2021/03/12 12:33:04;;;;;;;1.03;0.67;;;13.10;52.30;12.70;96280.00;;;;5066527;28;20428;-70
2021/03/12 12:35:54;;;;;;;1.43;0.50;;;13.20;52.30;12.90;96286.00;;;;5090560;27;20916;-70
2021/03/12 12:38:41;;;;;;;2.30;1.37;;;13.30;51.90;12.80;96286.00;;;;5088206;28;20214;-70